Time;durP1;ratioP1;P1;durP2;ratioP2;P2;SDS_P1;SDS_P2;PMS_P1;PMS_P2;Temp;Humidity;BMP_temperature;BMP_pressure;BME280_temperature;BME280_humidity;BME280_pressure;Samples;Min_cycle;Max_cycle;Signal;HPM_P1;HPM_P2
2023/03/14 00:01:23;;;;;;;;;;;;;;;;;;5134427;27;1957;-61
2023/03/14 00:03:50;;;;;;;;;;;;;;;;;;5134258;27;1777;-57
2023/03/14 00:06:18;;;;;;;;;;;;;;;;;;5134711;27;1687;-60
2023/03/14 00:08:45;;;;;;;;;;;;;;;;;;5127616;27;1789;-61
2023/03/14 00:11:14;;;;;;;;;;;;;;;;;;5113726;28;2001;-58
2023/03/14 00:13:41;;;;;;;;;;;;;;;;;;5095421;28;1802;-61
2023/03/14 00:16:10;;;;;;;;;;;;;;;;;;5113310;28;1968;-53
2023/03/14 00:18:41;;;;;;;;;;;;;;;;;;5112981;28;1869;-61
2023/03/14 00:21:09;;;;;;;;;;;;;;;;;;5113601;28;2007;-60
2023/03/14 00:23:37;;;;;;;;;;;;;;;;;;5113391;28;1978;-60
2023/03/14 00:26:09;;;;;;;;;;;;;;;;;;5113521;28;1971;-61
2023/03/14 00:28:37;;;;;;;;;;;;;;;;;;5095507;28;1823;-47
2023/03/14 00:31:04;;;;;;;;;;;;;;;;;;5113351;28;2065;-59
2023/03/14 00:33:33;;;;;;;;;;;;;;;;;;5113247;28;1810;-59
2023/03/14 00:36:01;;;;;;;;;;;;;;;;;;5112919;28;1929;-61
2023/03/14 00:38:29;;;;;;;;;;;;;;;;;;5113290;28;1657;-44
2023/03/14 00:40:57;;;;;;;;;;;;;;;;;;5113011;28;2168;-62
2023/03/14 00:43:25;;;;;;;;;;;;;;;;;;5094709;28;2093;-43
2023/03/14 00:45:54;;;;;;;;;;;;;;;;;;5112791;28;1974;-58
2023/03/14 00:48:22;;;;;;;;;;;;;;;;;;5095451;28;1355;-59
2023/03/14 00:50:49;;;;;;;;;;;;;;;;;;5113047;28;1730;-59
2023/03/14 00:53:17;;;;;;;;;;;;;;;;;;5112972;28;1843;-56
2023/03/14 00:55:45;;;;;;;;;;;;;;;;;;5112658;28;1973;-59
2023/03/14 00:58:13;;;;;;;;;;;;;;;;;;5094480;28;2074;-57
2023/03/14 01:00:41;;;;;;;;;;;;;;;;;;5094343;28;2012;-56
2023/03/14 01:03:09;;;;;;;;;;;;;;;;;;5094213;28;1920;-59
2023/03/14 01:05:36;;;;;;;;;;;;;;;;;;5112763;28;2187;-62
2023/03/14 01:08:04;;;;;;;;;;;;;;;;;;5112628;28;1855;-52
2023/03/14 01:10:34;;;;;;;;;;;;;;;;;;5094019;28;1864;-57
2023/03/14 01:13:01;;;;;;;;;;;;;;;;;;5112550;28;2086;-47
2023/03/14 01:15:32;;;;;;;;;;;;;;;;;;5112389;28;1977;-62
2023/03/14 01:17:59;;;;;;;;;;;;;;;;;;5112417;28;1997;-61
2023/03/14 01:20:27;;;;;;;;;;;;;;;;;;5112234;28;1680;-60
2023/03/14 01:22:55;;;;;;;;;;;;;;;;;;5112152;28;1713;-44
2023/03/14 01:25:22;;;;;;;;;;;;;;;;;;5094395;28;1725;-61
2023/03/14 01:27:49;;;;;;;;;;;;;;;;;;5093806;28;1984;-61
2023/03/14 01:30:16;;;;;;;;;;;;;;;;;;5093527;28;1940;-62
2023/03/14 01:32:43;;;;;;;;;;;;;;;;;;5093637;28;1872;-59
2023/03/14 01:35:12;;;;;;;;;;;;;;;;;;5093425;28;2006;-62
2023/03/14 01:37:40;;;;;;;;;;;;;;;;;;5093744;28;1567;-60
2023/03/14 01:40:16;;;;;;;;;;;;;;;;;;5093843;28;1803;-61
2023/03/14 01:42:54;;;;;;;;;;;;;;;;;;5093708;28;2136;-61
2023/03/14 01:45:42;;;;;;;;;;;;;;;;;;5093818;28;1854;-46
2023/03/14 01:48:09;;;;;;;;;;;;;;;;;;5111887;28;1961;-61
2023/03/14 01:50:36;;;;;;;;;;;;;;;;;;5112152;28;2158;-61
2023/03/14 01:53:04;;;;;;;;;;;;;;;;;;5111961;28;1787;-58
2023/03/14 01:55:31;;;;;;;;;;;;;;;;;;5093553;28;1965;-61
2023/03/14 01:58:02;;;;;;;;;;;;;;;;;;5111995;28;2040;-56
2023/03/14 02:00:30;;;;;;;;;;;;;;;;;;5093409;28;1687;-44
2023/03/14 02:03:00;;;;;;;;;;;;;;;;;;5111963;28;2031;-44
2023/03/14 02:05:31;;;;;;;;;;;;;;;;;;5111781;28;1418;-43
2023/03/14 02:08:10;;;;;;;;;;;;;;;;;;5094494;28;2275;-58
2023/03/14 02:10:48;;;;;;;;;;;;;;;;;;5132226;28;1734;-45
2023/03/14 02:13:21;;;;;;;;;;;;;;;;;;5113915;28;2072;-42
2023/03/14 02:16:12;;;;;;;;;;;;;;;;;;5113567;28;1918;-60
2023/03/14 02:18:51;;;;;;;;;;;;;;;;;;5131969;28;1784;-58
2023/03/14 02:22:05;;;;;;;;;;;;;;;;;;5110207;28;1886;-61
2023/03/14 02:24:38;;;;;;;;;;;;;;;;;;5093360;28;2128;-61
2023/03/14 02:27:13;;;;;;;;;;;;;;;;;;5093173;28;1592;-45
2023/03/14 02:29:54;;;;;;;;;;;;;;;;;;5093239;28;2002;-61
2023/03/14 02:32:22;;;;;;;;;;;;;;;;;;5093197;28;1971;-48
2023/03/14 02:34:52;;;;;;;;;;;;;;;;;;5111454;28;1763;-49
2023/03/14 02:37:20;;;;;;;;;;;;;;;;;;5093287;28;1557;-43
2023/03/14 02:39:49;;;;;;;;;;;;;;;;;;5111355;28;2194;-44
2023/03/14 02:42:17;;;;;;;;;;;;;;;;;;5094059;28;1960;-48
2023/03/14 02:44:52;;;;;;;;;;;;;;;;;;5113787;28;2306;-43
2023/03/14 02:47:26;;;;;;;;;;;;;;;;;;5096967;28;2436;-46
2023/03/14 02:49:56;;;;;;;;;;;;;;;;;;5115228;28;1899;-43
2023/03/14 02:52:25;;;;;;;;;;;;;;;;;;5115229;28;1524;-45
2023/03/14 02:54:52;;;;;;;;;;;;;;;;;;5115017;28;1990;-43
2023/03/14 02:57:19;;;;;;;;;;;;;;;;;;5096814;28;2027;-45
2023/03/14 02:59:46;;;;;;;;;;;;;;;;;;5096723;28;1482;-43
2023/03/14 03:02:17;;;;;;;;;;;;;;;;;;5096718;28;2033;-44
2023/03/14 03:04:45;;;;;;;;;;;;;;;;;;5115111;28;1685;-44
2023/03/14 03:07:12;;;;;;;;;;;;;;;;;;5114800;28;1955;-43
2023/03/14 03:09:41;;;;;;;;;;;;;;;;;;5114944;28;2076;-43
2023/03/14 03:12:08;;;;;;;;;;;;;;;;;;5114925;28;2013;-44
2023/03/14 03:14:37;;;;;;;;;;;;;;;;;;5096457;28;2344;-41
2023/03/14 03:17:05;;;;;;;;;;;;;;;;;;5096317;28;1977;-42
2023/03/14 03:19:34;;;;;;;;;;;;;;;;;;5114540;28;2167;-44
2023/03/14 03:22:01;;;;;;;;;;;;;;;;;;5096490;28;2136;-41
2023/03/14 03:24:28;;;;;;;;;;;;;;;;;;5114953;28;1617;-44
2023/03/14 03:26:56;;;;;;;;;;;;;;;;;;5114553;28;1836;-41
2023/03/14 03:29:23;;;;;;;;;;;;;;;;;;5114672;28;2016;-42
2023/03/14 03:31:50;;;;;;;;;;;;;;;;;;5114448;28;2075;-41
2023/03/14 03:34:18;;;;;;;;;;;;;;;;;;5095792;28;1713;-42
2023/03/14 03:36:48;;;;;;;;;;;;;;;;;;5095896;28;2257;-45
2023/03/14 03:39:15;;;;;;;;;;;;;;;;;;5096062;28;1877;-40
2023/03/14 03:41:46;;;;;;;;;;;;;;;;;;5096139;28;1938;-43
2023/03/14 03:44:13;;;;;;;;;;;;;;;;;;5095941;28;1898;-43
2023/03/14 03:46:40;;;;;;;;;;;;;;;;;;5095879;28;1849;-41
2023/03/14 03:49:07;;;;;;;;;;;;;;;;;;5095878;28;2311;-40
2023/03/14 03:51:35;;;;;;;;;;;;;;;;;;5114162;28;1788;-41
2023/03/14 03:54:04;;;;;;;;;;;;;;;;;;5113127;28;2205;-41
2023/03/14 03:56:34;;;;;;;;;;;;;;;;;;5095824;28;1907;-44
2023/03/14 03:59:01;;;;;;;;;;;;;;;;;;5114248;28;1544;-51
2023/03/14 04:01:28;;;;;;;;;;;;;;;;;;5095448;28;1726;-43
2023/03/14 04:03:58;;;;;;;;;;;;;;;;;;5095891;28;1887;-50
2023/03/14 04:06:26;;;;;;;;;;;;;;;;;;5095436;28;1732;-44
2023/03/14 04:08:56;;;;;;;;;;;;;;;;;;5104099;27;2119;-50
2023/03/14 04:11:31;;;;;;;;;;;;;;;;;;5134327;27;1861;-52
2023/03/14 04:14:09;;;;;;;;;;;;;;;;;;5134406;27;1789;-45
2023/03/14 04:16:37;;;;;;;;;;;;;;;;;;5115627;27;1980;-42
2023/03/14 04:19:11;;;;;;;;;;;;;;;;;;5115806;27;1809;-42
2023/03/14 04:21:40;;;;;;;;;;;;;;;;;;5115684;27;1699;-50
2023/03/14 04:24:10;;;;;;;;;;;;;;;;;;5115420;27;2097;-43
2023/03/14 04:26:38;;;;;;;;;;;;;;;;;;5102257;28;2126;-50
2023/03/14 04:29:06;;;;;;;;;;;;;;;;;;5094981;28;1861;-46
2023/03/14 04:31:35;;;;;;;;;;;;;;;;;;5095184;28;1793;-47
2023/03/14 04:34:02;;;;;;;;;;;;;;;;;;5095280;28;2179;-44
2023/03/14 04:36:37;;;;;;;;;;;;;;;;;;5094789;28;2085;-41
2023/03/14 04:39:10;;;;;;;;;;;;;;;;;;5094877;28;2037;-47
2023/03/14 04:41:44;;;;;;;;;;;;;;;;;;5094762;28;1977;-47
2023/03/14 04:44:12;;;;;;;;;;;;;;;;;;5094904;28;1996;-46
2023/03/14 04:46:39;;;;;;;;;;;;;;;;;;5094831;28;1702;-44
2023/03/14 04:49:09;;;;;;;;;;;;;;;;;;5113017;28;1855;-43
2023/03/14 04:51:37;;;;;;;;;;;;;;;;;;5095089;28;2141;-49
2023/03/14 04:54:04;;;;;;;;;;;;;;;;;;5094918;28;1958;-43
2023/03/14 04:56:32;;;;;;;;;;;;;;;;;;5094347;28;1942;-41
2023/03/14 04:59:01;;;;;;;;;;;;;;;;;;5094590;28;1661;-44
2023/03/14 05:01:30;;;;;;;;;;;;;;;;;;5111412;28;1886;-40
2023/03/14 05:04:16;;;;;;;;;;;;;;;;;;5112772;28;2159;-41
2023/03/14 05:07:09;;;;;;;;;;;;;;;;;;5094405;28;1859;-46
2023/03/14 05:09:53;;;;;;;;;;;;;;;;;;5110872;27;2221;-43
2023/03/14 05:12:47;;;;;;;;;;;;;;;;;;5108738;27;1753;-45
2023/03/14 05:15:53;;;;;;;;;;;;;;;;;;5069469;28;1902;-41
2023/03/14 05:18:47;;;;;;;;;;;;;;;;;;5109165;28;2356;-42
2023/03/14 05:21:34;;;;;;;;;;;;;;;;;;5112310;28;1866;-41
2023/03/14 05:24:14;;;;;;;;;;;;;;;;;;5094179;28;2153;-41
2023/03/14 05:26:59;;;;;;;;;;;;;;;;;;5112349;28;2146;-43
2023/03/14 05:29:42;;;;;;;;;;;;;;;;;;5093841;28;2281;-43
2023/03/14 05:32:27;;;;;;;;;;;;;;;;;;5129784;27;2116;-42
2023/03/14 05:35:20;;;;;;;;;;;;;;;;;;5113894;27;2052;-43
2023/03/14 05:38:23;;;;;;;;;;;;;;;;;;5069474;28;1700;-44
2023/03/14 05:41:20;;;;;;;;;;;;;;;;;;5040449;27;1964;-44
2023/03/14 05:44:06;;;;;;;;;;;;;;;;;;5132515;27;1644;-45
2023/03/14 05:46:56;;;;;;;;;;;;;;;;;;5126584;27;1677;-41
2023/03/14 05:49:37;;;;;;;;;;;;;;;;;;5131402;27;1643;-43
2023/03/14 05:52:37;;;;;;;;;;;;;;;;;;5097799;27;1972;-44
2023/03/14 05:55:18;;;;;;;;;;;;;;;;;;5114011;27;1744;-44
2023/03/14 05:58:08;;;;;;;;;;;;;;;;;;5132488;27;1953;-41
2023/03/14 06:00:49;;;;;;;;;;;;;;;;;;5113885;27;1486;-42
2023/03/14 06:03:34;;;;;;;;;;;;;;;;;;5095102;28;2116;-41
2023/03/14 06:06:01;;;;;;;;;;;;;;;;;;5111796;28;2131;-41
2023/03/14 06:08:28;;;;;;;;;;;;;;;;;;5111016;28;1799;-43
2023/03/14 06:10:57;;;;;;;;;;;;;;;;;;5093539;28;2060;-41
2023/03/14 06:13:28;;;;;;;;;;;;;;;;;;5111742;28;2287;-42
2023/03/14 06:15:56;;;;;;;;;;;;;;;;;;5111601;28;1977;-42
2023/03/14 06:18:23;;;;;;;;;;;;;;;;;;5114424;28;2414;-41
2023/03/14 06:20:54;;;;;;;;;;;;;;;;;;5097566;28;1840;-46
2023/03/14 06:23:25;;;;;;;;;;;;;;;;;;5115794;28;1820;-40
2023/03/14 06:25:53;;;;;;;;;;;;;;;;;;5096930;28;2096;-41
2023/03/14 06:28:23;;;;;;;;;;;;;;;;;;5115689;28;2138;-42
2023/03/14 06:30:56;;;;;;;;;;;;;;;;;;5097416;28;1977;-42
2023/03/14 06:33:23;;;;;;;;;;;;;;;;;;5115031;28;1814;-50
2023/03/14 06:35:50;;;;;;;;;;;;;;;;;;5093666;28;1826;-41
2023/03/14 06:38:17;;;;;;;;;;;;;;;;;;5093883;28;2272;-41
2023/03/14 06:40:45;;;;;;;;;;;;;;;;;;5093877;28;2252;-41
2023/03/14 06:43:17;;;;;;;;;;;;;;;;;;5093795;28;2352;-41
2023/03/14 06:45:45;;;;;;;;;;;;;;;;;;5093479;28;2291;-41
2023/03/14 06:48:12;;;;;;;;;;;;;;;;;;5093907;28;2190;-41
2023/03/14 06:50:47;;;;;;;;;;;;;;;;;;5094798;28;1832;-45
2023/03/14 06:53:15;;;;;;;;;;;;;;;;;;5093826;28;2279;-41
2023/03/14 06:55:43;;;;;;;;;;;;;;;;;;5093704;28;1677;-43
2023/03/14 06:58:10;;;;;;;;;;;;;;;;;;5093750;28;1927;-41
2023/03/14 07:00:41;;;;;;;;;;;;;;;;;;5113742;28;1979;-41
2023/03/14 07:03:12;;;;;;;;;;;;;;;;;;5108114;28;2264;-41
2023/03/14 07:05:42;;;;;;;;;;;;;;;;;;5093499;28;1651;-41
2023/03/14 07:08:10;;;;;;;;;;;;;;;;;;5094614;28;1438;-41
2023/03/14 07:10:38;;;;;;;;;;;;;;;;;;5097453;28;1896;-43
2023/03/14 07:13:07;;;;;;;;;;;;;;;;;;5092362;28;2121;-43
2023/03/14 07:15:42;;;;;;;;;;;;;;;;;;5094660;28;1874;-42
2023/03/14 07:18:09;;;;;;;;;;;;;;;;;;5094300;28;1923;-43
2023/03/14 07:20:37;;;;;;;;;;;;;;;;;;5110059;28;1844;-44
2023/03/14 07:23:06;;;;;;;;;;;;;;;;;;5094474;28;1809;-41
2023/03/14 07:25:41;;;;;;;;;;;;;;;;;;5093136;28;2093;-41
2023/03/14 07:28:09;;;;;;;;;;;;;;;;;;5094338;28;1936;-41
2023/03/14 07:30:38;;;;;;;;;;;;;;;;;;5093084;28;1467;-39
2023/03/14 07:33:13;;;;;;;;;;;;;;;;;;5093125;28;1835;-41
2023/03/14 07:35:40;;;;;;;;;;;;;;;;;;5106666;28;1706;-46
2023/03/14 07:38:08;;;;;;;;;;;;;;;;;;5114102;28;1979;-41
2023/03/14 07:40:43;;;;;;;;;;;;;;;;;;5096288;28;2162;-42
2023/03/14 07:43:11;;;;;;;;;;;;;;;;;;5094967;28;2265;-42
2023/03/14 07:45:45;;;;;;;;;;;;;;;;;;5111073;28;2324;-41
2023/03/14 07:48:17;;;;;;;;;;;;;;;;;;5114187;28;1706;-41
2023/03/14 07:50:44;;;;;;;;;;;;;;;;;;5114238;28;2066;-41
2023/03/14 07:53:11;;;;;;;;;;;;;;;;;;5114143;28;2464;-41
2023/03/14 07:55:39;;;;;;;;;;;;;;;;;;5114257;28;1963;-40
2023/03/14 07:58:06;;;;;;;;;;;;;;;;;;5113978;28;2042;-41
2023/03/14 08:00:33;;;;;;;;;;;;;;;;;;5113863;28;2287;-43
2023/03/14 08:03:00;;;;;;;;;;;;;;;;;;5113869;28;2180;-40
2023/03/14 08:05:28;;;;;;;;;;;;;;;;;;5113245;28;1985;-40
2023/03/14 08:07:55;;;;;;;;;;;;;;;;;;5113810;28;1825;-41
2023/03/14 08:10:22;;;;;;;;;;;;;;;;;;5113837;28;2101;-40
2023/03/14 08:12:50;;;;;;;;;;;;;;;;;;5117200;27;1911;-41
2023/03/14 08:15:17;;;;;;;;;;;;;;;;;;5113927;28;1276;-41
2023/03/14 08:17:44;;;;;;;;;;;;;;;;;;5095217;28;2087;-41
2023/03/14 08:20:13;;;;;;;;;;;;;;;;;;5119116;27;1773;-42
2023/03/14 08:22:40;;;;;;;;;;;;;;;;;;5134235;27;1767;-42
2023/03/14 08:25:07;;;;;;;;;;;;;;;;;;5134109;27;1608;-41
2023/03/14 08:27:37;;;;;;;;;;;;;;;;;;5134000;27;1490;-41
2023/03/14 08:30:05;;;;;;;;;;;;;;;;;;5133742;27;2057;-41
2023/03/14 08:32:32;;;;;;;;;;;;;;;;;;5134047;27;2001;-41
2023/03/14 08:34:59;;;;;;;;;;;;;;;;;;5133791;27;1700;-45
2023/03/14 08:37:27;;;;;;;;;;;;;;;;;;5133623;27;2018;-41
2023/03/14 08:39:54;;;;;;;;;;;;;;;;;;5132737;27;1984;-44
2023/03/14 08:42:21;;;;;;;;;;;;;;;;;;5133643;27;1444;-49
2023/03/14 08:44:48;;;;;;;;;;;;;;;;;;5133894;27;1700;-41
2023/03/14 08:47:16;;;;;;;;;;;;;;;;;;5128425;27;1729;-42
2023/03/14 08:49:43;;;;;;;;;;;;;;;;;;5112795;28;2024;-41
2023/03/14 08:52:10;;;;;;;;;;;;;;;;;;5112964;28;2284;-42
2023/03/14 08:54:37;;;;;;;;;;;;;;;;;;5130789;27;1790;-41
2023/03/14 08:57:05;;;;;;;;;;;;;;;;;;5131872;27;2226;-43
2023/03/14 08:59:33;;;;;;;;;;;;;;;;;;5113755;27;1892;-41
2023/03/14 09:02:03;;;;;;;;;;;;;;;;;;5112159;27;1802;-38
2023/03/14 09:04:31;;;;;;;;;;;;;;;;;;5117804;27;1917;-43
2023/03/14 09:07:03;;;;;;;;;;;;;;;;;;5114142;27;1400;-59
2023/03/14 09:09:31;;;;;;;;;;;;;;;;;;5124409;27;1232;-43
2023/03/14 09:11:58;;;;;;;;;;;;;;;;;;5133113;27;1526;-50
2023/03/14 09:14:26;;;;;;;;;;;;;;;;;;5133398;27;1912;-44
2023/03/14 09:16:53;;;;;;;;;;;;;;;;;;5132935;27;1901;-49
2023/03/14 09:19:21;;;;;;;;;;;;;;;;;;5133214;27;2167;-51
2023/03/14 09:21:48;;;;;;;;;;;;;;;;;;5133108;27;1823;-49
2023/03/14 09:24:16;;;;;;;;;;;;;;;;;;5132757;27;2105;-47
2023/03/14 09:26:43;;;;;;;;;;;;;;;;;;5132786;27;2113;-50
2023/03/14 09:29:10;;;;;;;;;;;;;;;;;;5132828;27;2499;-53
2023/03/14 09:31:38;;;;;;;;;;;;;;;;;;5132993;27;2106;-46
2023/03/14 09:34:06;;;;;;;;;;;;;;;;;;5132821;27;1865;-51
2023/03/14 09:36:33;;;;;;;;;;;;;;;;;;5132551;27;1748;-53
2023/03/14 09:39:00;;;;;;;;;;;;;;;;;;5132605;27;1909;-53
2023/03/14 09:41:35;;;;;;;;;;;;;;;;;;5132617;27;1629;-48
2023/03/14 09:44:05;;;;;;;;;;;;;;;;;;5132683;27;1928;-49
2023/03/14 09:46:35;;;;;;;;;;;;;;;;;;5132616;27;2027;-51
2023/03/14 09:49:02;;;;;;;;;;;;;;;;;;5132587;27;1702;-50
2023/03/14 09:51:31;;;;;;;;;;;;;;;;;;5113257;28;1874;-51
2023/03/14 09:53:59;;;;;;;;;;;;;;;;;;5132212;27;1704;-47
2023/03/14 09:56:29;;;;;;;;;;;;;;;;;;5132520;27;1960;-50
2023/03/14 09:58:57;;;;;;;;;;;;;;;;;;5132277;27;2161;-55
2023/03/14 10:01:26;;;;;;;;;;;;;;;;;;5132558;27;1811;-51
2023/03/14 10:03:58;;;;;;;;;;;;;;;;;;5132355;27;1591;-52
2023/03/14 10:06:30;;;;;;;;;;;;;;;;;;5120390;27;1922;-46
2023/03/14 10:08:57;;;;;;;;;;;;;;;;;;5120238;27;2169;-49
2023/03/14 10:11:24;;;;;;;;;;;;;;;;;;5114231;28;1913;-54
2023/03/14 10:14:01;;;;;;;;;;;;;;;;;;5132480;28;1859;-52
2023/03/14 10:16:29;;;;;;;;;;;;;;;;;;5131983;28;1955;-51
2023/03/14 10:19:01;;;;;;;;;;;;;;;;;;5132344;28;1910;-42
2023/03/14 10:21:29;;;;;;;;;;;;;;;;;;5132175;28;1482;-44
2023/03/14 10:24:28;;;;;;;;;;;;;;;;;;5132199;28;1809;-51
2023/03/14 10:27:03;;;;;;;;;;;;;;;;;;5087391;28;1882;-41
2023/03/14 10:29:31;;;;;;;;;;;;;;;;;;5132135;28;1868;-40
2023/03/14 10:32:00;;;;;;;;;;;;;;;;;;5132020;28;1937;-41
2023/03/14 10:34:32;;;;;;;;;;;;;;;;;;5132102;28;1824;-44
2023/03/14 10:37:27;;;;;;;;;;;;;;;;;;5131991;28;1917;-43
2023/03/14 10:39:58;;;;;;;;;;;;;;;;;;5129553;28;2069;-40
2023/03/14 10:42:34;;;;;;;;;;;;;;;;;;5132137;28;1967;-41
2023/03/14 10:45:22;;;;;;;;;;;;;;;;;;5132063;28;2250;-39
2023/03/14 10:47:49;;;;;;;;;;;;;;;;;;5131944;28;1937;-41
2023/03/14 10:50:23;;;;;;;;;;;;;;;;;;5131981;28;1262;-41
2023/03/14 10:52:51;;;;;;;;;;;;;;;;;;5131849;28;1614;-43
2023/03/14 10:55:40;;;;;;;;;;;;;;;;;;5131695;28;1711;-41
2023/03/14 10:58:18;;;;;;;;;;;;;;;;;;5131573;28;1904;-39
2023/03/14 11:00:51;;;;;;;;;;;;;;;;;;5131752;28;1836;-41
2023/03/14 11:03:20;;;;;;;;;;;;;;;;;;5132760;27;2147;-43
2023/03/14 11:05:58;;;;;;;;;;;;;;;;;;5135506;27;1810;-40
2023/03/14 11:08:31;;;;;;;;;;;;;;;;;;5131530;27;1654;-40
2023/03/14 11:11:11;;;;;;;;;;;;;;;;;;5115192;28;2118;-40
2023/03/14 11:13:48;;;;;;;;;;;;;;;;;;5114937;28;1973;-41
2023/03/14 11:16:33;;;;;;;;;;;;;;;;;;5114771;28;1950;-41
2023/03/14 11:19:01;;;;;;;;;;;;;;;;;;5114531;28;1907;-41
2023/03/14 11:21:28;;;;;;;;;;;;;;;;;;5115075;28;1733;-45
2023/03/14 11:24:14;;;;;;;;;;;;;;;;;;5114731;28;1791;-42
2023/03/14 11:26:44;;;;;;;;;;;;;;;;;;5114602;28;1812;-41
2023/03/14 11:29:23;;;;;;;;;;;;;;;;;;5114531;28;1490;-43
2023/03/14 11:31:53;;;;;;;;;;;;;;;;;;5114591;28;2144;-42
2023/03/14 11:34:28;;;;;;;;;;;;;;;;;;5114470;28;1623;-44
2023/03/14 11:36:55;;;;;;;;;;;;;;;;;;5114335;28;1701;-42
2023/03/14 11:39:24;;;;;;;;;;;;;;;;;;5114511;28;1967;-42
2023/03/14 11:41:52;;;;;;;;;;;;;;;;;;5114189;28;2003;-42
2023/03/14 11:44:22;;;;;;;;;;;;;;;;;;5114431;28;1500;-45
2023/03/14 11:46:57;;;;;;;;;;;;;;;;;;5114151;28;1766;-44
2023/03/14 11:49:32;;;;;;;;;;;;;;;;;;5114291;28;1776;-44
2023/03/14 11:52:03;;;;;;;;;;;;;;;;;;5114286;28;1952;-49
2023/03/14 11:54:35;;;;;;;;;;;;;;;;;;5114336;28;1937;-42
2023/03/14 11:57:02;;;;;;;;;;;;;;;;;;5114165;28;1735;-39
2023/03/14 12:00:08;;;;;;;;;;;;;;;;;;5114229;28;1909;-39
2023/03/14 12:02:44;;;;;;;;;;;;;;;;;;5011227;28;2016;-40
2023/03/14 12:05:11;;;;;;;;;;;;;;;;;;5101723;27;2133;-41
2023/03/14 12:07:48;;;;;;;;;;;;;;;;;;5113989;28;2125;-39
2023/03/14 12:10:16;;;;;;;;;;;;;;;;;;5113626;28;2290;-39
2023/03/14 12:12:43;;;;;;;;;;;;;;;;;;5113721;28;2381;-41
2023/03/14 12:15:18;;;;;;;;;;;;;;;;;;5112668;28;1962;-39
2023/03/14 12:17:46;;;;;;;;;;;;;;;;;;5113640;28;1912;-39
2023/03/14 12:20:17;;;;;;;;;;;;;;;;;;5113513;28;2074;-44
2023/03/14 12:22:47;;;;;;;;;;;;;;;;;;5113560;28;1868;-43
2023/03/14 12:25:14;;;;;;;;;;;;;;;;;;5113446;28;1358;-38
2023/03/14 12:27:42;;;;;;;;;;;;;;;;;;5113231;28;1814;-37
2023/03/14 12:30:29;;;;;;;;;;;;;;;;;;5113453;28;1583;-43
2023/03/14 12:33:11;;;;;;;;;;;;;;;;;;5113380;28;1614;-42
2023/03/14 12:35:41;;;;;;;;;;;;;;;;;;5112917;28;1821;-42
2023/03/14 12:38:14;;;;;;;;;;;;;;;;;;5113105;28;1975;-42
2023/03/14 12:40:56;;;;;;;;;;;;;;;;;;5113187;28;2128;-42
2023/03/14 12:43:27;;;;;;;;;;;;;;;;;;5113107;28;1725;-45
2023/03/14 12:46:09;;;;;;;;;;;;;;;;;;5112995;28;1982;-38
2023/03/14 12:48:38;;;;;;;;;;;;;;;;;;5112848;28;1867;-41
2023/03/14 12:51:11;;;;;;;;;;;;;;;;;;5113394;28;1760;-39
2023/03/14 12:53:53;;;;;;;;;;;;;;;;;;5112927;28;1593;-39
2023/03/14 12:56:22;;;;;;;;;;;;;;;;;;5112935;28;1969;-39
2023/03/14 12:59:08;;;;;;;;;;;;;;;;;;5112747;28;2248;-39
2023/03/14 13:01:35;;;;;;;;;;;;;;;;;;5113153;28;1974;-47
2023/03/14 13:04:07;;;;;;;;;;;;;;;;;;5113028;28;1391;-43
2023/03/14 13:06:56;;;;;;;;;;;;;;;;;;5112706;28;1690;-41
2023/03/14 13:09:31;;;;;;;;;;;;;;;;;;5124600;27;1896;-39
2023/03/14 13:12:11;;;;;;;;;;;;;;;;;;5133232;27;1884;-39
2023/03/14 13:14:46;;;;;;;;;;;;;;;;;;5133076;27;1796;-38
2023/03/14 13:17:14;;;;;;;;;;;;;;;;;;5133097;27;1816;-39
2023/03/14 13:20:04;;;;;;;;;;;;;;;;;;5132973;27;2275;-41
2023/03/14 13:22:33;;;;;;;;;;;;;;;;;;5132938;27;1834;-41
2023/03/14 13:25:01;;;;;;;;;;;;;;;;;;5114916;27;2041;-40
2023/03/14 13:27:30;;;;;;;;;;;;;;;;;;5132793;27;2194;-39
2023/03/14 13:29:57;;;;;;;;;;;;;;;;;;5132701;27;1681;-44
2023/03/14 13:32:28;;;;;;;;;;;;;;;;;;5132625;27;1854;-39
2023/03/14 13:34:57;;;;;;;;;;;;;;;;;;5132549;27;1791;-38
2023/03/14 13:37:25;;;;;;;;;;;;;;;;;;5132716;27;1811;-40
2023/03/14 13:39:55;;;;;;;;;;;;;;;;;;5132650;27;2208;-38
2023/03/14 13:42:29;;;;;;;;;;;;;;;;;;5132667;27;1475;-40
2023/03/14 13:44:56;;;;;;;;;;;;;;;;;;5131948;27;2454;-38
2023/03/14 13:47:25;;;;;;;;;;;;;;;;;;5132649;27;2340;-38
2023/03/14 13:49:52;;;;;;;;;;;;;;;;;;5132393;27;1822;-39
2023/03/14 13:52:22;;;;;;;;;;;;;;;;;;5132501;27;1709;-38
2023/03/14 13:54:53;;;;;;;;;;;;;;;;;;5114304;28;2029;-38
2023/03/14 13:57:21;;;;;;;;;;;;;;;;;;5132425;27;1907;-39
2023/03/14 13:59:59;;;;;;;;;;;;;;;;;;5113848;28;1931;-39
2023/03/14 14:02:27;;;;;;;;;;;;;;;;;;5132380;27;1639;-39
2023/03/14 14:04:54;;;;;;;;;;;;;;;;;;5132307;27;1466;-41
2023/03/14 14:07:21;;;;;;;;;;;;;;;;;;5132283;27;1907;-39
2023/03/14 14:09:49;;;;;;;;;;;;;;;;;;5116232;28;2165;-37
2023/03/14 14:12:21;;;;;;;;;;;;;;;;;;5111475;28;2108;-38
2023/03/14 14:14:51;;;;;;;;;;;;;;;;;;5111718;28;1825;-39
2023/03/14 14:17:19;;;;;;;;;;;;;;;;;;5114061;28;1469;-38
2023/03/14 14:19:47;;;;;;;;;;;;;;;;;;5132145;28;1906;-39
2023/03/14 14:22:14;;;;;;;;;;;;;;;;;;5131934;28;1694;-38
2023/03/14 14:24:41;;;;;;;;;;;;;;;;;;5132286;28;2081;-39
2023/03/14 14:27:32;;;;;;;;;;;;;;;;;;5132335;28;1639;-39
2023/03/14 14:30:06;;;;;;;;;;;;;;;;;;5121969;28;1792;-37
2023/03/14 14:32:37;;;;;;;;;;;;;;;;;;5131861;28;1599;-39
2023/03/14 14:35:05;;;;;;;;;;;;;;;;;;5132138;28;1619;-39
2023/03/14 14:37:34;;;;;;;;;;;;;;;;;;5132049;27;1369;-39
2023/03/14 14:40:07;;;;;;;;;;;;;;;;;;5135762;27;2043;-38
2023/03/14 14:42:34;;;;;;;;;;;;;;;;;;5136075;27;2027;-37
2023/03/14 14:45:02;;;;;;;;;;;;;;;;;;5135559;27;2273;-39
2023/03/14 14:47:30;;;;;;;;;;;;;;;;;;5135970;27;1986;-37
2023/03/14 14:49:59;;;;;;;;;;;;;;;;;;5135963;27;1808;-38
2023/03/14 14:52:41;;;;;;;;;;;;;;;;;;5135827;27;2163;-39
2023/03/14 14:55:32;;;;;;;;;;;;;;;;;;5135963;27;1251;-39
2023/03/14 14:58:12;;;;;;;;;;;;;;;;;;5125692;27;1420;-39
2023/03/14 15:00:41;;;;;;;;;;;;;;;;;;5135821;27;1827;-39
2023/03/14 15:03:12;;;;;;;;;;;;;;;;;;5135748;27;1961;-46
2023/03/14 15:05:40;;;;;;;;;;;;;;;;;;5135661;27;1819;-43
2023/03/14 15:08:10;;;;;;;;;;;;;;;;;;5133998;27;1961;-47
2023/03/14 15:10:38;;;;;;;;;;;;;;;;;;5115032;28;1604;-43
2023/03/14 15:13:05;;;;;;;;;;;;;;;;;;5114835;28;2163;-47
2023/03/14 15:15:34;;;;;;;;;;;;;;;;;;5114893;28;1968;-42
2023/03/14 15:18:01;;;;;;;;;;;;;;;;;;5114220;28;1978;-41
2023/03/14 15:20:29;;;;;;;;;;;;;;;;;;5112920;27;1963;-39
2023/03/14 15:22:56;;;;;;;;;;;;;;;;;;5114888;28;1542;-39
2023/03/14 15:25:24;;;;;;;;;;;;;;;;;;5114721;28;2176;-40
2023/03/14 15:28:21;;;;;;;;;;;;;;;;;;5114737;28;1525;-39
2023/03/14 15:30:53;;;;;;;;;;;;;;;;;;5113738;28;1787;-42
2023/03/14 15:33:21;;;;;;;;;;;;;;;;;;5114061;28;1691;-44
2023/03/14 15:35:48;;;;;;;;;;;;;;;;;;5114087;28;1676;-39
2023/03/14 15:38:16;;;;;;;;;;;;;;;;;;5114775;28;2057;-39
2023/03/14 15:40:43;;;;;;;;;;;;;;;;;;5114306;28;1561;-39
2023/03/14 15:43:11;;;;;;;;;;;;;;;;;;5114316;28;2265;-39
2023/03/14 15:45:38;;;;;;;;;;;;;;;;;;5114236;28;1646;-39
2023/03/14 15:48:05;;;;;;;;;;;;;;;;;;5113753;28;1988;-40
2023/03/14 15:50:32;;;;;;;;;;;;;;;;;;5112793;28;2114;-39
2023/03/14 15:53:00;;;;;;;;;;;;;;;;;;5114103;28;1721;-39
2023/03/14 15:55:27;;;;;;;;;;;;;;;;;;5095764;28;1808;-42
2023/03/14 15:57:54;;;;;;;;;;;;;;;;;;5113773;28;1829;-44
2023/03/14 16:00:21;;;;;;;;;;;;;;;;;;5113557;28;1968;-38
2023/03/14 16:02:51;;;;;;;;;;;;;;;;;;5114005;28;1838;-39
2023/03/14 16:05:21;;;;;;;;;;;;;;;;;;5113937;28;2009;-39
2023/03/14 16:07:48;;;;;;;;;;;;;;;;;;5114137;28;1892;-44
2023/03/14 16:10:15;;;;;;;;;;;;;;;;;;5133360;27;1874;-43
2023/03/14 16:12:44;;;;;;;;;;;;;;;;;;5133842;27;1647;-39
2023/03/14 16:15:13;;;;;;;;;;;;;;;;;;5134202;27;1826;-39
2023/03/14 16:17:43;;;;;;;;;;;;;;;;;;5134250;27;2164;-40
2023/03/14 16:20:11;;;;;;;;;;;;;;;;;;5134039;27;2045;-39
2023/03/14 16:22:38;;;;;;;;;;;;;;;;;;5134067;27;2307;-40
2023/03/14 16:25:07;;;;;;;;;;;;;;;;;;5133681;27;1697;-39
2023/03/14 16:27:34;;;;;;;;;;;;;;;;;;5133936;27;1891;-39
2023/03/14 16:30:01;;;;;;;;;;;;;;;;;;5133582;27;1869;-39
2023/03/14 16:32:28;;;;;;;;;;;;;;;;;;5134018;27;2049;-39
2023/03/14 16:34:56;;;;;;;;;;;;;;;;;;5133729;27;1978;-38
2023/03/14 16:37:24;;;;;;;;;;;;;;;;;;5133637;27;2028;-40
2023/03/14 16:39:51;;;;;;;;;;;;;;;;;;5133379;27;1969;-39
2023/03/14 16:42:37;;;;;;;;;;;;;;;;;;5133660;27;1827;-39
2023/03/14 16:45:16;;;;;;;;;;;;;;;;;;5133855;27;1917;-39
2023/03/14 16:47:43;;;;;;;;;;;;;;;;;;5133735;27;1977;-43
2023/03/14 16:50:10;;;;;;;;;;;;;;;;;;5133554;27;1609;-39
2023/03/14 16:52:37;;;;;;;;;;;;;;;;;;5133193;27;1736;-39
2023/03/14 16:55:06;;;;;;;;;;;;;;;;;;5115011;27;2330;-39
2023/03/14 16:57:33;;;;;;;;;;;;;;;;;;5133067;27;2134;-39
2023/03/14 17:00:00;;;;;;;;;;;;;;;;;;5133341;27;2001;-40
2023/03/14 17:02:28;;;;;;;;;;;;;;;;;;5132692;27;2130;-39
2023/03/14 17:04:55;;;;;;;;;;;;;;;;;;5131841;27;2022;-39
2023/03/14 17:07:22;;;;;;;;;;;;;;;;;;5114889;27;1671;-40
2023/03/14 17:09:50;;;;;;;;;;;;;;;;;;5117030;27;2246;-40
2023/03/14 17:12:17;;;;;;;;;;;;;;;;;;5112246;28;2092;-39
2023/03/14 17:14:44;;;;;;;;;;;;;;;;;;5112055;28;1521;-39
2023/03/14 17:17:11;;;;;;;;;;;;;;;;;;5111788;28;1760;-40
2023/03/14 17:19:38;;;;;;;;;;;;;;;;;;5112261;28;1970;-39
2023/03/14 17:22:06;;;;;;;;;;;;;;;;;;5112321;28;2166;-39
2023/03/14 17:24:49;;;;;;;;;;;;;;;;;;5112575;28;2188;-39
2023/03/14 17:27:18;;;;;;;;;;;;;;;;;;5112401;28;1573;-40
2023/03/14 17:29:46;;;;;;;;;;;;;;;;;;5112109;28;1698;-40
2023/03/14 17:32:14;;;;;;;;;;;;;;;;;;5112107;28;1964;-39